sensor_id;sensor_type;location;lat;lon;timestamp;P1;durP1;ratioP1;P2;durP2;ratioP2
29848;SDS011;16728;50.832;5.590;2023-05-10T00:01:52;9.60;;;7.93;;
29848;SDS011;16728;50.832;5.590;2023-05-10T00:04:54;9.60;;;7.38;;
29848;SDS011;16728;50.832;5.590;2023-05-10T00:07:56;8.88;;;7.63;;
29848;SDS011;16728;50.832;5.590;2023-05-10T00:10:58;9.82;;;7.82;;
29848;SDS011;16728;50.832;5.590;2023-05-10T00:14:00;9.18;;;7.53;;
29848;SDS011;16728;50.832;5.590;2023-05-10T00:17:01;8.85;;;7.72;;
29848;SDS011;16728;50.832;5.590;2023-05-10T00:20:04;10.03;;;7.93;;
29848;SDS011;16728;50.832;5.590;2023-05-10T00:23:07;8.67;;;7.43;;
29848;SDS011;16728;50.832;5.590;2023-05-10T00:26:09;8.70;;;7.70;;
29848;SDS011;16728;50.832;5.590;2023-05-10T00:29:11;10.13;;;7.70;;
29848;SDS011;16728;50.832;5.590;2023-05-10T00:32:20;10.30;;;8.10;;
29848;SDS011;16728;50.832;5.590;2023-05-10T00:35:22;8.77;;;7.88;;
29848;SDS011;16728;50.832;5.590;2023-05-10T00:38:25;11.98;;;8.13;;
29848;SDS011;16728;50.832;5.590;2023-05-10T00:41:26;8.45;;;7.55;;
29848;SDS011;16728;50.832;5.590;2023-05-10T00:44:29;10.40;;;7.35;;
29848;SDS011;16728;50.832;5.590;2023-05-10T00:47:38;11.27;;;7.93;;
29848;SDS011;16728;50.832;5.590;2023-05-10T00:50:41;9.60;;;7.77;;
29848;SDS011;16728;50.832;5.590;2023-05-10T00:53:43;7.72;;;7.03;;
29848;SDS011;16728;50.832;5.590;2023-05-10T00:56:47;9.52;;;7.50;;
29848;SDS011;16728;50.832;5.590;2023-05-10T00:59:50;9.03;;;7.40;;
29848;SDS011;16728;50.832;5.590;2023-05-10T01:02:53;8.90;;;6.75;;
29848;SDS011;16728;50.832;5.590;2023-05-10T01:05:55;8.18;;;6.28;;
29848;SDS011;16728;50.832;5.590;2023-05-10T01:08:59;11.48;;;7.60;;
29848;SDS011;16728;50.832;5.590;2023-05-10T01:12:01;11.57;;;6.97;;
29848;SDS011;16728;50.832;5.590;2023-05-10T01:15:09;9.05;;;6.95;;
29848;SDS011;16728;50.832;5.590;2023-05-10T01:18:12;8.73;;;7.45;;
29848;SDS011;16728;50.832;5.590;2023-05-10T01:21:38;8.48;;;7.28;;
29848;SDS011;16728;50.832;5.590;2023-05-10T01:24:54;8.18;;;7.25;;
29848;SDS011;16728;50.832;5.590;2023-05-10T01:41:59;11.57;;;8.25;;
29848;SDS011;16728;50.832;5.590;2023-05-10T01:45:22;18.65;;;9.77;;
29848;SDS011;16728;50.832;5.590;2023-05-10T01:48:30;10.43;;;9.10;;
29848;SDS011;16728;50.832;5.590;2023-05-10T01:51:36;14.15;;;10.10;;
29848;SDS011;16728;50.832;5.590;2023-05-10T01:54:50;15.43;;;10.18;;
29848;SDS011;16728;50.832;5.590;2023-05-10T01:58:05;12.93;;;10.90;;
29848;SDS011;16728;50.832;5.590;2023-05-10T02:01:09;16.63;;;10.93;;
29848;SDS011;16728;50.832;5.590;2023-05-10T02:04:13;14.63;;;10.98;;
29848;SDS011;16728;50.832;5.590;2023-05-10T02:07:20;16.65;;;11.63;;
29848;SDS011;16728;50.832;5.590;2023-05-10T02:10:23;16.15;;;10.90;;
29848;SDS011;16728;50.832;5.590;2023-05-10T02:13:25;17.05;;;11.23;;
29848;SDS011;16728;50.832;5.590;2023-05-10T02:16:30;17.95;;;11.68;;
29848;SDS011;16728;50.832;5.590;2023-05-10T02:19:33;16.70;;;11.48;;
29848;SDS011;16728;50.832;5.590;2023-05-10T02:22:37;13.90;;;9.98;;
29848;SDS011;16728;50.832;5.590;2023-05-10T02:25:41;20.75;;;12.15;;
29848;SDS011;16728;50.832;5.590;2023-05-10T02:28:45;21.98;;;12.13;;
29848;SDS011;16728;50.832;5.590;2023-05-10T02:31:49;16.70;;;12.10;;
29848;SDS011;16728;50.832;5.590;2023-05-10T02:34:54;22.00;;;13.40;;
29848;SDS011;16728;50.832;5.590;2023-05-10T02:37:57;23.77;;;14.88;;
29848;SDS011;16728;50.832;5.590;2023-05-10T02:41:00;23.88;;;15.45;;
29848;SDS011;16728;50.832;5.590;2023-05-10T02:44:05;26.58;;;16.05;;
29848;SDS011;16728;50.832;5.590;2023-05-10T02:47:09;31.25;;;15.45;;
29848;SDS011;16728;50.832;5.590;2023-05-10T02:50:11;30.08;;;17.42;;
29848;SDS011;16728;50.832;5.590;2023-05-10T02:53:15;31.17;;;17.30;;
29848;SDS011;16728;50.832;5.590;2023-05-10T02:56:28;25.75;;;15.07;;
29848;SDS011;16728;50.832;5.590;2023-05-10T02:59:34;24.58;;;15.43;;
29848;SDS011;16728;50.832;5.590;2023-05-10T03:02:41;25.13;;;15.13;;
29848;SDS011;16728;50.832;5.590;2023-05-10T03:05:43;23.13;;;15.43;;
29848;SDS011;16728;50.832;5.590;2023-05-10T03:08:45;27.17;;;15.27;;
29848;SDS011;16728;50.832;5.590;2023-05-10T03:11:50;23.05;;;13.45;;
29848;SDS011;16728;50.832;5.590;2023-05-10T03:18:53;23.77;;;14.10;;
29848;SDS011;16728;50.832;5.590;2023-05-10T03:25:19;21.67;;;14.35;;
29848;SDS011;16728;50.832;5.590;2023-05-10T03:28:24;26.95;;;15.00;;
29848;SDS011;16728;50.832;5.590;2023-05-10T03:31:27;30.67;;;17.17;;
29848;SDS011;16728;50.832;5.590;2023-05-10T03:34:29;28.55;;;18.30;;
29848;SDS011;16728;50.832;5.590;2023-05-10T03:37:32;27.35;;;20.25;;
29848;SDS011;16728;50.832;5.590;2023-05-10T03:40:39;32.58;;;21.40;;
29848;SDS011;16728;50.832;5.590;2023-05-10T03:43:42;31.38;;;21.20;;
29848;SDS011;16728;50.832;5.590;2023-05-10T03:46:50;29.00;;;20.80;;
29848;SDS011;16728;50.832;5.590;2023-05-10T03:49:52;27.63;;;19.13;;
29848;SDS011;16728;50.832;5.590;2023-05-10T03:52:53;29.13;;;18.48;;
29848;SDS011;16728;50.832;5.590;2023-05-10T03:55:55;28.30;;;19.05;;
29848;SDS011;16728;50.832;5.590;2023-05-10T03:59:04;26.38;;;18.30;;
29848;SDS011;16728;50.832;5.590;2023-05-10T04:02:08;29.15;;;17.50;;
29848;SDS011;16728;50.832;5.590;2023-05-10T04:05:10;25.17;;;16.40;;
29848;SDS011;16728;50.832;5.590;2023-05-10T04:08:12;29.45;;;17.02;;
29848;SDS011;16728;50.832;5.590;2023-05-10T04:11:20;26.60;;;16.67;;
29848;SDS011;16728;50.832;5.590;2023-05-10T04:14:23;26.57;;;16.97;;
29848;SDS011;16728;50.832;5.590;2023-05-10T04:17:25;27.02;;;16.20;;
29848;SDS011;16728;50.832;5.590;2023-05-10T04:20:27;26.40;;;15.95;;
29848;SDS011;16728;50.832;5.590;2023-05-10T04:23:29;24.98;;;15.27;;
29848;SDS011;16728;50.832;5.590;2023-05-10T04:26:31;25.52;;;14.27;;
29848;SDS011;16728;50.832;5.590;2023-05-10T04:32:36;23.05;;;15.98;;
29848;SDS011;16728;50.832;5.590;2023-05-10T04:35:39;22.20;;;14.07;;
29848;SDS011;16728;50.832;5.590;2023-05-10T04:38:41;24.08;;;14.98;;
29848;SDS011;16728;50.832;5.590;2023-05-10T04:41:44;24.42;;;14.73;;
29848;SDS011;16728;50.832;5.590;2023-05-10T04:44:52;21.33;;;14.30;;
29848;SDS011;16728;50.832;5.590;2023-05-10T04:47:54;25.08;;;15.32;;
29848;SDS011;16728;50.832;5.590;2023-05-10T04:50:56;22.73;;;14.93;;
29848;SDS011;16728;50.832;5.590;2023-05-10T04:53:58;19.95;;;14.25;;
29848;SDS011;16728;50.832;5.590;2023-05-10T04:57:07;21.42;;;14.38;;
29848;SDS011;16728;50.832;5.590;2023-05-10T05:00:10;23.80;;;13.85;;
29848;SDS011;16728;50.832;5.590;2023-05-10T05:03:12;18.47;;;13.73;;
29848;SDS011;16728;50.832;5.590;2023-05-10T05:06:20;20.35;;;14.07;;
29848;SDS011;16728;50.832;5.590;2023-05-10T05:09:22;24.60;;;13.32;;
29848;SDS011;16728;50.832;5.590;2023-05-10T05:12:24;19.08;;;13.27;;
29848;SDS011;16728;50.832;5.590;2023-05-10T05:15:26;19.85;;;14.05;;
29848;SDS011;16728;50.832;5.590;2023-05-10T05:18:28;20.77;;;14.40;;
29848;SDS011;16728;50.832;5.590;2023-05-10T05:21:31;17.35;;;12.18;;
29848;SDS011;16728;50.832;5.590;2023-05-10T05:24:36;18.80;;;12.65;;
29848;SDS011;16728;50.832;5.590;2023-05-10T05:27:39;16.63;;;11.77;;
29848;SDS011;16728;50.832;5.590;2023-05-10T05:30:42;16.38;;;12.30;;
29848;SDS011;16728;50.832;5.590;2023-05-10T05:33:44;17.10;;;11.60;;
29848;SDS011;16728;50.832;5.590;2023-05-10T05:36:46;14.60;;;10.60;;
29848;SDS011;16728;50.832;5.590;2023-05-10T05:39:48;14.70;;;10.50;;
29848;SDS011;16728;50.832;5.590;2023-05-10T05:42:54;16.20;;;10.98;;
29848;SDS011;16728;50.832;5.590;2023-05-10T05:45:56;13.23;;;10.15;;
29848;SDS011;16728;50.832;5.590;2023-05-10T05:48:59;12.95;;;9.95;;
29848;SDS011;16728;50.832;5.590;2023-05-10T05:52:01;11.60;;;8.50;;
29848;SDS011;16728;50.832;5.590;2023-05-10T05:55:09;10.38;;;8.68;;
29848;SDS011;16728;50.832;5.590;2023-05-10T05:58:11;11.23;;;8.38;;
29848;SDS011;16728;50.832;5.590;2023-05-10T06:01:14;9.95;;;8.32;;
29848;SDS011;16728;50.832;5.590;2023-05-10T06:04:19;13.18;;;8.50;;
29848;SDS011;16728;50.832;5.590;2023-05-10T06:07:21;10.73;;;7.75;;
29848;SDS011;16728;50.832;5.590;2023-05-10T06:10:22;8.90;;;5.97;;
29848;SDS011;16728;50.832;5.590;2023-05-10T06:13:28;8.57;;;6.28;;
29848;SDS011;16728;50.832;5.590;2023-05-10T06:16:33;7.57;;;5.93;;
29848;SDS011;16728;50.832;5.590;2023-05-10T06:19:36;9.57;;;7.27;;
29848;SDS011;16728;50.832;5.590;2023-05-10T06:22:38;8.20;;;6.85;;
29848;SDS011;16728;50.832;5.590;2023-05-10T06:28:43;8.20;;;6.35;;
29848;SDS011;16728;50.832;5.590;2023-05-10T06:31:45;14.20;;;8.97;;
29848;SDS011;16728;50.832;5.590;2023-05-10T06:34:47;15.23;;;10.10;;
29848;SDS011;16728;50.832;5.590;2023-05-10T06:37:52;13.75;;;9.55;;
29848;SDS011;16728;50.832;5.590;2023-05-10T06:40:54;13.25;;;8.93;;
29848;SDS011;16728;50.832;5.590;2023-05-10T06:43:56;16.35;;;10.38;;
29848;SDS011;16728;50.832;5.590;2023-05-10T06:46:59;16.08;;;10.43;;
29848;SDS011;16728;50.832;5.590;2023-05-10T06:50:01;16.83;;;10.77;;
29848;SDS011;16728;50.832;5.590;2023-05-10T06:53:03;16.30;;;10.27;;
29848;SDS011;16728;50.832;5.590;2023-05-10T06:56:06;14.60;;;11.18;;
29848;SDS011;16728;50.832;5.590;2023-05-10T06:59:08;18.50;;;12.63;;
29848;SDS011;16728;50.832;5.590;2023-05-10T07:02:11;19.42;;;13.63;;
29848;SDS011;16728;50.832;5.590;2023-05-10T07:05:13;22.85;;;16.58;;
29848;SDS011;16728;50.832;5.590;2023-05-10T07:08:18;25.55;;;16.10;;
29848;SDS011;16728;50.832;5.590;2023-05-10T07:11:20;29.00;;;17.30;;
29848;SDS011;16728;50.832;5.590;2023-05-10T07:14:22;29.70;;;17.42;;
29848;SDS011;16728;50.832;5.590;2023-05-10T07:17:24;31.25;;;16.25;;
29848;SDS011;16728;50.832;5.590;2023-05-10T07:20:26;21.05;;;15.00;;
29848;SDS011;16728;50.832;5.590;2023-05-10T07:23:29;19.58;;;13.68;;
29848;SDS011;16728;50.832;5.590;2023-05-10T07:26:32;16.30;;;11.27;;
29848;SDS011;16728;50.832;5.590;2023-05-10T07:29:34;7.72;;;5.68;;
29848;SDS011;16728;50.832;5.590;2023-05-10T07:32:36;5.88;;;3.83;;
29848;SDS011;16728;50.832;5.590;2023-05-10T07:35:38;3.75;;;3.20;;
29848;SDS011;16728;50.832;5.590;2023-05-10T07:38:42;5.35;;;3.85;;
29848;SDS011;16728;50.832;5.590;2023-05-10T07:41:44;4.53;;;3.45;;
29848;SDS011;16728;50.832;5.590;2023-05-10T07:44:47;4.85;;;3.58;;
29848;SDS011;16728;50.832;5.590;2023-05-10T07:47:49;6.97;;;3.92;;
29848;SDS011;16728;50.832;5.590;2023-05-10T07:50:51;4.23;;;3.27;;
29848;SDS011;16728;50.832;5.590;2023-05-10T07:53:53;4.20;;;3.05;;
29848;SDS011;16728;50.832;5.590;2023-05-10T07:56:59;5.80;;;3.53;;
29848;SDS011;16728;50.832;5.590;2023-05-10T08:00:02;4.93;;;3.42;;
29848;SDS011;16728;50.832;5.590;2023-05-10T08:03:05;4.05;;;3.30;;
29848;SDS011;16728;50.832;5.590;2023-05-10T08:06:08;4.82;;;3.28;;
29848;SDS011;16728;50.832;5.590;2023-05-10T08:09:11;3.60;;;3.22;;
29848;SDS011;16728;50.832;5.590;2023-05-10T08:12:13;4.63;;;3.35;;
29848;SDS011;16728;50.832;5.590;2023-05-10T08:15:16;4.43;;;3.30;;
29848;SDS011;16728;50.832;5.590;2023-05-10T08:18:19;4.00;;;2.87;;
29848;SDS011;16728;50.832;5.590;2023-05-10T08:21:22;6.32;;;3.10;;
29848;SDS011;16728;50.832;5.590;2023-05-10T08:24:24;3.95;;;2.63;;
29848;SDS011;16728;50.832;5.590;2023-05-10T08:27:26;3.30;;;2.38;;
29848;SDS011;16728;50.832;5.590;2023-05-10T08:30:27;3.55;;;2.97;;
29848;SDS011;16728;50.832;5.590;2023-05-10T08:33:29;4.43;;;2.30;;
29848;SDS011;16728;50.832;5.590;2023-05-10T08:36:31;2.38;;;1.75;;
29848;SDS011;16728;50.832;5.590;2023-05-10T08:39:34;4.05;;;2.60;;
29848;SDS011;16728;50.832;5.590;2023-05-10T08:42:36;2.90;;;2.40;;
29848;SDS011;16728;50.832;5.590;2023-05-10T08:45:50;2.97;;;2.10;;
29848;SDS011;16728;50.832;5.590;2023-05-10T08:48:55;1.60;;;1.50;;
29848;SDS011;16728;50.832;5.590;2023-05-10T08:52:02;4.20;;;1.90;;
29848;SDS011;16728;50.832;5.590;2023-05-10T08:55:06;2.67;;;2.08;;
29848;SDS011;16728;50.832;5.590;2023-05-10T08:58:09;2.88;;;1.80;;
29848;SDS011;16728;50.832;5.590;2023-05-10T09:01:11;3.40;;;2.17;;
29848;SDS011;16728;50.832;5.590;2023-05-10T09:04:21;1.77;;;1.67;;
29848;SDS011;16728;50.832;5.590;2023-05-10T09:07:22;2.03;;;1.80;;
29848;SDS011;16728;50.832;5.590;2023-05-10T09:10:24;2.13;;;1.95;;
29848;SDS011;16728;50.832;5.590;2023-05-10T09:13:30;2.60;;;1.90;;
29848;SDS011;16728;50.832;5.590;2023-05-10T09:16:40;4.40;;;2.25;;
29848;SDS011;16728;50.832;5.590;2023-05-10T09:19:42;2.58;;;2.38;;
29848;SDS011;16728;50.832;5.590;2023-05-10T09:22:46;2.72;;;2.45;;
29848;SDS011;16728;50.832;5.590;2023-05-10T09:29:23;3.05;;;2.75;;
29848;SDS011;16728;50.832;5.590;2023-05-10T09:32:35;5.35;;;3.30;;
29848;SDS011;16728;50.832;5.590;2023-05-10T09:38:55;3.65;;;3.25;;
29848;SDS011;16728;50.832;5.590;2023-05-10T09:42:08;5.18;;;3.60;;
29848;SDS011;16728;50.832;5.590;2023-05-10T09:45:10;5.53;;;4.00;;
29848;SDS011;16728;50.832;5.590;2023-05-10T09:48:14;5.75;;;4.20;;
29848;SDS011;16728;50.832;5.590;2023-05-10T09:54:52;5.82;;;4.10;;
29848;SDS011;16728;50.832;5.590;2023-05-10T09:57:58;4.50;;;4.07;;
29848;SDS011;16728;50.832;5.590;2023-05-10T10:01:01;5.57;;;4.38;;
29848;SDS011;16728;50.832;5.590;2023-05-10T10:04:04;6.55;;;4.75;;
29848;SDS011;16728;50.832;5.590;2023-05-10T10:07:08;5.97;;;5.10;;
29848;SDS011;16728;50.832;5.590;2023-05-10T10:13:37;6.95;;;5.97;;
29848;SDS011;16728;50.832;5.590;2023-05-10T10:16:39;6.78;;;6.07;;
29848;SDS011;16728;50.832;5.590;2023-05-10T10:20:00;7.13;;;6.10;;
29848;SDS011;16728;50.832;5.590;2023-05-10T10:23:19;8.32;;;6.90;;
29848;SDS011;16728;50.832;5.590;2023-05-10T10:26:22;6.97;;;5.82;;
29848;SDS011;16728;50.832;5.590;2023-05-10T10:29:33;8.70;;;6.60;;
29848;SDS011;16728;50.832;5.590;2023-05-10T10:35:51;7.90;;;6.90;;
29848;SDS011;16728;50.832;5.590;2023-05-10T10:38:55;9.30;;;6.40;;
29848;SDS011;16728;50.832;5.590;2023-05-10T10:42:01;9.63;;;6.68;;
29848;SDS011;16728;50.832;5.590;2023-05-10T10:48:19;8.35;;;6.25;;
29848;SDS011;16728;50.832;5.590;2023-05-10T10:51:23;8.05;;;5.93;;
29848;SDS011;16728;50.832;5.590;2023-05-10T10:54:29;6.97;;;6.13;;
29848;SDS011;16728;50.832;5.590;2023-05-10T10:57:51;10.38;;;6.95;;
29848;SDS011;16728;50.832;5.590;2023-05-10T11:01:15;8.00;;;6.07;;
29848;SDS011;16728;50.832;5.590;2023-05-10T11:04:18;8.88;;;6.57;;
29848;SDS011;16728;50.832;5.590;2023-05-10T11:07:26;9.80;;;6.63;;
29848;SDS011;16728;50.832;5.590;2023-05-10T11:10:28;12.05;;;6.63;;
29848;SDS011;16728;50.832;5.590;2023-05-10T11:16:51;7.70;;;6.05;;
29848;SDS011;16728;50.832;5.590;2023-05-10T11:20:07;7.22;;;5.70;;
29848;SDS011;16728;50.832;5.590;2023-05-10T11:23:16;13.57;;;5.28;;
29848;SDS011;16728;50.832;5.590;2023-05-10T11:26:19;9.02;;;5.70;;
29848;SDS011;16728;50.832;5.590;2023-05-10T11:29:27;8.38;;;5.60;;
29848;SDS011;16728;50.832;5.590;2023-05-10T11:32:29;7.68;;;5.82;;
29848;SDS011;16728;50.832;5.590;2023-05-10T11:35:41;5.90;;;5.27;;
29848;SDS011;16728;50.832;5.590;2023-05-10T11:38:44;9.13;;;5.53;;
29848;SDS011;16728;50.832;5.590;2023-05-10T11:41:49;5.35;;;4.28;;
29848;SDS011;16728;50.832;5.590;2023-05-10T11:44:52;6.30;;;4.55;;
29848;SDS011;16728;50.832;5.590;2023-05-10T11:47:54;6.53;;;5.10;;
29848;SDS011;16728;50.832;5.590;2023-05-10T11:50:58;5.25;;;4.10;;
29848;SDS011;16728;50.832;5.590;2023-05-10T11:54:05;8.27;;;4.70;;
29848;SDS011;16728;50.832;5.590;2023-05-10T11:57:11;5.93;;;4.45;;
29848;SDS011;16728;50.832;5.590;2023-05-10T12:00:13;7.10;;;4.50;;
29848;SDS011;16728;50.832;5.590;2023-05-10T12:03:16;5.60;;;4.65;;
29848;SDS011;16728;50.832;5.590;2023-05-10T12:06:19;5.22;;;4.70;;
29848;SDS011;16728;50.832;5.590;2023-05-10T12:09:29;7.50;;;4.63;;
29848;SDS011;16728;50.832;5.590;2023-05-10T12:12:46;6.35;;;4.18;;
29848;SDS011;16728;50.832;5.590;2023-05-10T12:15:49;4.05;;;3.53;;
29848;SDS011;16728;50.832;5.590;2023-05-10T12:18:55;5.60;;;4.03;;
29848;SDS011;16728;50.832;5.590;2023-05-10T12:21:59;5.70;;;4.03;;
29848;SDS011;16728;50.832;5.590;2023-05-10T12:25:01;5.00;;;3.60;;
29848;SDS011;16728;50.832;5.590;2023-05-10T12:28:05;5.53;;;4.10;;
29848;SDS011;16728;50.832;5.590;2023-05-10T12:31:13;5.68;;;3.97;;
29848;SDS011;16728;50.832;5.590;2023-05-10T12:34:30;5.57;;;4.10;;
29848;SDS011;16728;50.832;5.590;2023-05-10T12:37:34;6.18;;;3.97;;
29848;SDS011;16728;50.832;5.590;2023-05-10T12:40:40;5.40;;;4.22;;
29848;SDS011;16728;50.832;5.590;2023-05-10T12:43:42;4.97;;;4.30;;
29848;SDS011;16728;50.832;5.590;2023-05-10T12:46:44;5.20;;;4.13;;
29848;SDS011;16728;50.832;5.590;2023-05-10T12:49:46;6.28;;;3.75;;
29848;SDS011;16728;50.832;5.590;2023-05-10T12:52:47;4.43;;;3.83;;
29848;SDS011;16728;50.832;5.590;2023-05-10T12:55:49;6.15;;;4.20;;
29848;SDS011;16728;50.832;5.590;2023-05-10T12:58:51;5.55;;;4.10;;
29848;SDS011;16728;50.832;5.590;2023-05-10T13:01:54;4.38;;;3.60;;
29848;SDS011;16728;50.832;5.590;2023-05-10T13:04:56;4.97;;;3.70;;
29848;SDS011;16728;50.832;5.590;2023-05-10T13:07:58;3.85;;;3.03;;
29848;SDS011;16728;50.832;5.590;2023-05-10T13:11:00;4.90;;;3.63;;
29848;SDS011;16728;50.832;5.590;2023-05-10T13:14:02;6.32;;;3.10;;
29848;SDS011;16728;50.832;5.590;2023-05-10T13:17:05;4.13;;;3.40;;
29848;SDS011;16728;50.832;5.590;2023-05-10T13:20:07;4.38;;;3.90;;
29848;SDS011;16728;50.832;5.590;2023-05-10T13:23:10;5.72;;;4.63;;
29848;SDS011;16728;50.832;5.590;2023-05-10T13:26:13;4.20;;;3.10;;
29848;SDS011;16728;50.832;5.590;2023-05-10T13:29:15;3.33;;;2.72;;
29848;SDS011;16728;50.832;5.590;2023-05-10T13:32:19;3.75;;;2.97;;
29848;SDS011;16728;50.832;5.590;2023-05-10T13:35:21;3.83;;;3.33;;
29848;SDS011;16728;50.832;5.590;2023-05-10T13:38:23;3.90;;;3.42;;
29848;SDS011;16728;50.832;5.590;2023-05-10T13:41:25;4.40;;;3.50;;
29848;SDS011;16728;50.832;5.590;2023-05-10T13:44:27;4.05;;;3.22;;
29848;SDS011;16728;50.832;5.590;2023-05-10T13:47:29;3.95;;;2.75;;
29848;SDS011;16728;50.832;5.590;2023-05-10T13:50:32;2.75;;;2.55;;
29848;SDS011;16728;50.832;5.590;2023-05-10T13:53:34;2.20;;;1.85;;
29848;SDS011;16728;50.832;5.590;2023-05-10T13:56:36;2.20;;;1.42;;
29848;SDS011;16728;50.832;5.590;2023-05-10T13:59:47;1.38;;;1.05;;
29848;SDS011;16728;50.832;5.590;2023-05-10T14:02:49;0.88;;;0.88;;
29848;SDS011;16728;50.832;5.590;2023-05-10T14:05:52;1.40;;;1.10;;
29848;SDS011;16728;50.832;5.590;2023-05-10T14:08:54;1.52;;;0.80;;
29848;SDS011;16728;50.832;5.590;2023-05-10T14:11:56;1.42;;;0.90;;
29848;SDS011;16728;50.832;5.590;2023-05-10T14:15:03;2.90;;;2.58;;
29848;SDS011;16728;50.832;5.590;2023-05-10T14:18:08;1.92;;;1.17;;
29848;SDS011;16728;50.832;5.590;2023-05-10T14:21:10;0.85;;;0.82;;
29848;SDS011;16728;50.832;5.590;2023-05-10T14:24:11;0.65;;;0.50;;
29848;SDS011;16728;50.832;5.590;2023-05-10T14:27:13;1.00;;;0.60;;
29848;SDS011;16728;50.832;5.590;2023-05-10T14:30:16;0.60;;;0.60;;
29848;SDS011;16728;50.832;5.590;2023-05-10T14:33:26;1.35;;;0.70;;
29848;SDS011;16728;50.832;5.590;2023-05-10T14:36:28;2.00;;;0.98;;
29848;SDS011;16728;50.832;5.590;2023-05-10T14:39:31;1.50;;;0.57;;
29848;SDS011;16728;50.832;5.590;2023-05-10T14:42:34;1.17;;;0.50;;
29848;SDS011;16728;50.832;5.590;2023-05-10T14:45:37;0.73;;;0.60;;
29848;SDS011;16728;50.832;5.590;2023-05-10T14:48:39;1.90;;;0.68;;
29848;SDS011;16728;50.832;5.590;2023-05-10T14:51:43;1.05;;;0.80;;
29848;SDS011;16728;50.832;5.590;2023-05-10T14:54:46;0.57;;;0.57;;
29848;SDS011;16728;50.832;5.590;2023-05-10T14:57:48;0.73;;;0.73;;
29848;SDS011;16728;50.832;5.590;2023-05-10T15:00:52;0.73;;;0.73;;
29848;SDS011;16728;50.832;5.590;2023-05-10T15:03:59;1.30;;;1.00;;
29848;SDS011;16728;50.832;5.590;2023-05-10T15:07:07;1.50;;;1.17;;
29848;SDS011;16728;50.832;5.590;2023-05-10T15:10:09;1.60;;;1.20;;
29848;SDS011;16728;50.832;5.590;2023-05-10T15:13:12;4.88;;;1.30;;
29848;SDS011;16728;50.832;5.590;2023-05-10T15:16:29;10.20;;;1.50;;
29848;SDS011;16728;50.832;5.590;2023-05-10T15:19:34;1.50;;;1.40;;
29848;SDS011;16728;50.832;5.590;2023-05-10T15:22:37;1.45;;;1.27;;
29848;SDS011;16728;50.832;5.590;2023-05-10T15:25:39;2.58;;;1.70;;
29848;SDS011;16728;50.832;5.590;2023-05-10T15:31:45;2.67;;;2.08;;
29848;SDS011;16728;50.832;5.590;2023-05-10T15:34:50;2.03;;;1.70;;
29848;SDS011;16728;50.832;5.590;2023-05-10T15:37:52;2.80;;;1.90;;
29848;SDS011;16728;50.832;5.590;2023-05-10T15:40:57;3.13;;;2.00;;
29848;SDS011;16728;50.832;5.590;2023-05-10T15:43:59;3.08;;;1.80;;
29848;SDS011;16728;50.832;5.590;2023-05-10T15:47:02;1.80;;;1.70;;
29848;SDS011;16728;50.832;5.590;2023-05-10T15:50:05;3.22;;;1.73;;
29848;SDS011;16728;50.832;5.590;2023-05-10T15:56:09;2.30;;;1.90;;
29848;SDS011;16728;50.832;5.590;2023-05-10T15:59:15;2.35;;;1.67;;
29848;SDS011;16728;50.832;5.590;2023-05-10T16:02:16;2.35;;;1.40;;
29848;SDS011;16728;50.832;5.590;2023-05-10T16:05:19;3.47;;;1.70;;
29848;SDS011;16728;50.832;5.590;2023-05-10T16:08:22;1.57;;;1.30;;
29848;SDS011;16728;50.832;5.590;2023-05-10T16:11:24;1.80;;;1.40;;
29848;SDS011;16728;50.832;5.590;2023-05-10T16:14:26;2.95;;;1.10;;
29848;SDS011;16728;50.832;5.590;2023-05-10T16:17:29;1.00;;;0.90;;
29848;SDS011;16728;50.832;5.590;2023-05-10T16:20:31;2.25;;;1.00;;
29848;SDS011;16728;50.832;5.590;2023-05-10T16:23:38;1.55;;;1.00;;
29848;SDS011;16728;50.832;5.590;2023-05-10T16:26:40;1.23;;;1.02;;
29848;SDS011;16728;50.832;5.590;2023-05-10T16:29:43;2.27;;;1.17;;
29848;SDS011;16728;50.832;5.590;2023-05-10T16:32:45;1.98;;;1.23;;
29848;SDS011;16728;50.832;5.590;2023-05-10T16:35:46;2.67;;;1.40;;
29848;SDS011;16728;50.832;5.590;2023-05-10T16:38:48;2.58;;;1.50;;
29848;SDS011;16728;50.832;5.590;2023-05-10T16:41:51;2.78;;;2.22;;
29848;SDS011;16728;50.832;5.590;2023-05-10T16:44:53;2.65;;;2.17;;
29848;SDS011;16728;50.832;5.590;2023-05-10T16:47:56;3.65;;;1.83;;
29848;SDS011;16728;50.832;5.590;2023-05-10T16:50:58;3.17;;;2.05;;
29848;SDS011;16728;50.832;5.590;2023-05-10T16:57:03;2.67;;;1.90;;
29848;SDS011;16728;50.832;5.590;2023-05-10T17:00:06;2.20;;;1.63;;
29848;SDS011;16728;50.832;5.590;2023-05-10T17:03:08;2.65;;;1.77;;
29848;SDS011;16728;50.832;5.590;2023-05-10T17:06:15;1.95;;;1.52;;
29848;SDS011;16728;50.832;5.590;2023-05-10T17:09:17;3.28;;;1.42;;
29848;SDS011;16728;50.832;5.590;2023-05-10T17:12:22;1.70;;;1.50;;
29848;SDS011;16728;50.832;5.590;2023-05-10T17:15:24;2.47;;;1.70;;
29848;SDS011;16728;50.832;5.590;2023-05-10T17:18:26;3.70;;;2.10;;
29848;SDS011;16728;50.832;5.590;2023-05-10T17:21:28;2.53;;;1.83;;
29848;SDS011;16728;50.832;5.590;2023-05-10T17:24:30;3.17;;;2.00;;
29848;SDS011;16728;50.832;5.590;2023-05-10T17:27:33;3.55;;;2.05;;
29848;SDS011;16728;50.832;5.590;2023-05-10T17:30:35;3.72;;;2.63;;
29848;SDS011;16728;50.832;5.590;2023-05-10T17:33:37;3.50;;;2.40;;
29848;SDS011;16728;50.832;5.590;2023-05-10T17:36:39;6.03;;;2.50;;
29848;SDS011;16728;50.832;5.590;2023-05-10T17:39:41;4.93;;;3.00;;
29848;SDS011;16728;50.832;5.590;2023-05-10T17:42:43;3.83;;;3.33;;
29848;SDS011;16728;50.832;5.590;2023-05-10T17:45:46;5.20;;;3.30;;
29848;SDS011;16728;50.832;5.590;2023-05-10T17:48:49;4.50;;;2.90;;
29848;SDS011;16728;50.832;5.590;2023-05-10T17:51:51;3.92;;;3.00;;
29848;SDS011;16728;50.832;5.590;2023-05-10T17:54:54;4.97;;;4.07;;
29848;SDS011;16728;50.832;5.590;2023-05-10T17:57:56;5.57;;;4.10;;
29848;SDS011;16728;50.832;5.590;2023-05-10T18:01:00;6.20;;;4.78;;
29848;SDS011;16728;50.832;5.590;2023-05-10T18:04:03;9.30;;;4.83;;
29848;SDS011;16728;50.832;5.590;2023-05-10T18:07:11;10.38;;;5.63;;
29848;SDS011;16728;50.832;5.590;2023-05-10T18:10:13;7.03;;;4.85;;
29848;SDS011;16728;50.832;5.590;2023-05-10T18:13:15;8.10;;;5.53;;
29848;SDS011;16728;50.832;5.590;2023-05-10T18:16:24;8.80;;;5.13;;
29848;SDS011;16728;50.832;5.590;2023-05-10T18:19:29;6.95;;;5.55;;
29848;SDS011;16728;50.832;5.590;2023-05-10T18:22:32;9.52;;;6.75;;
29848;SDS011;16728;50.832;5.590;2023-05-10T18:25:34;15.27;;;8.43;;
29848;SDS011;16728;50.832;5.590;2023-05-10T18:28:36;12.30;;;8.40;;
29848;SDS011;16728;50.832;5.590;2023-05-10T18:31:38;13.52;;;8.07;;
29848;SDS011;16728;50.832;5.590;2023-05-10T18:34:40;10.77;;;6.93;;
29848;SDS011;16728;50.832;5.590;2023-05-10T18:37:43;9.23;;;7.35;;
29848;SDS011;16728;50.832;5.590;2023-05-10T18:40:45;14.68;;;7.40;;
29848;SDS011;16728;50.832;5.590;2023-05-10T18:43:47;9.60;;;7.32;;
29848;SDS011;16728;50.832;5.590;2023-05-10T18:46:49;8.32;;;5.80;;
29848;SDS011;16728;50.832;5.590;2023-05-10T18:50:01;7.38;;;5.95;;
29848;SDS011;16728;50.832;5.590;2023-05-10T18:53:04;9.23;;;5.32;;
29848;SDS011;16728;50.832;5.590;2023-05-10T18:56:06;7.22;;;5.82;;
29848;SDS011;16728;50.832;5.590;2023-05-10T18:59:08;10.85;;;6.53;;
29848;SDS011;16728;50.832;5.590;2023-05-10T19:02:11;10.20;;;7.45;;
29848;SDS011;16728;50.832;5.590;2023-05-10T19:05:14;13.55;;;8.13;;
29848;SDS011;16728;50.832;5.590;2023-05-10T19:08:21;9.73;;;6.97;;
29848;SDS011;16728;50.832;5.590;2023-05-10T19:11:23;16.33;;;7.65;;
29848;SDS011;16728;50.832;5.590;2023-05-10T19:14:26;16.23;;;7.28;;
29848;SDS011;16728;50.832;5.590;2023-05-10T19:17:28;8.93;;;6.63;;
29848;SDS011;16728;50.832;5.590;2023-05-10T19:20:37;11.35;;;7.00;;